sensor_id;sensor_type;location;lat;lon;timestamp;temperature;humidity
55004;DHT22;40900;52.710;6.438;2022-08-01T00:00:22;18.70;99.90
55004;DHT22;40900;52.710;6.438;2022-08-01T00:02:48;18.70;99.90
55004;DHT22;40900;52.710;6.438;2022-08-01T00:05:13;18.70;99.90
55004;DHT22;40900;52.710;6.438;2022-08-01T00:07:39;18.70;99.90
55004;DHT22;40900;52.710;6.438;2022-08-01T00:10:08;18.70;99.90
55004;DHT22;40900;52.710;6.438;2022-08-01T00:12:35;18.80;99.90
55004;DHT22;40900;52.710;6.438;2022-08-01T00:15:01;18.70;99.90
55004;DHT22;40900;52.710;6.438;2022-08-01T00:17:26;18.70;99.90
55004;DHT22;40900;52.710;6.438;2022-08-01T00:19:52;18.70;99.90
55004;DHT22;40900;52.710;6.438;2022-08-01T00:22:18;18.70;99.90
55004;DHT22;40900;52.710;6.438;2022-08-01T00:24:44;18.70;99.90
55004;DHT22;40900;52.710;6.438;2022-08-01T00:27:09;18.60;99.90
55004;DHT22;40900;52.710;6.438;2022-08-01T00:29:35;18.60;99.90
55004;DHT22;40900;52.710;6.438;2022-08-01T00:32:01;18.70;99.90
55004;DHT22;40900;52.710;6.438;2022-08-01T00:34:26;18.60;99.90
55004;DHT22;40900;52.710;6.438;2022-08-01T00:36:52;18.70;99.90
55004;DHT22;40900;52.710;6.438;2022-08-01T00:39:18;18.60;99.90
55004;DHT22;40900;52.710;6.438;2022-08-01T00:41:43;18.60;99.90
55004;DHT22;40900;52.710;6.438;2022-08-01T00:44:09;18.70;99.90
55004;DHT22;40900;52.710;6.438;2022-08-01T00:46:35;18.60;99.90
55004;DHT22;40900;52.710;6.438;2022-08-01T00:49:01;18.70;99.90
55004;DHT22;40900;52.710;6.438;2022-08-01T00:51:27;18.60;99.90
55004;DHT22;40900;52.710;6.438;2022-08-01T00:53:53;18.60;99.90
55004;DHT22;40900;52.710;6.438;2022-08-01T00:56:25;18.70;99.90
55004;DHT22;40900;52.710;6.438;2022-08-01T00:58:51;18.70;99.90
55004;DHT22;40900;52.710;6.438;2022-08-01T01:01:17;18.60;99.90
55004;DHT22;40900;52.710;6.438;2022-08-01T01:03:46;18.60;99.90
55004;DHT22;40900;52.710;6.438;2022-08-01T01:11:56;18.60;99.90
55004;DHT22;40900;52.710;6.438;2022-08-01T01:14:41;18.60;99.90
55004;DHT22;40900;52.710;6.438;2022-08-01T01:17:15;18.50;99.90
55004;DHT22;40900;52.710;6.438;2022-08-01T01:19:51;18.60;99.90
55004;DHT22;40900;52.710;6.438;2022-08-01T01:22:24;18.60;99.90
55004;DHT22;40900;52.710;6.438;2022-08-01T01:25:08;18.60;99.90
55004;DHT22;40900;52.710;6.438;2022-08-01T01:30:29;18.50;99.90
55004;DHT22;40900;52.710;6.438;2022-08-01T01:32:59;18.50;99.90
55004;DHT22;40900;52.710;6.438;2022-08-01T01:35:29;18.50;99.90
55004;DHT22;40900;52.710;6.438;2022-08-01T01:38:10;18.50;99.90
55004;DHT22;40900;52.710;6.438;2022-08-01T01:40:38;18.50;99.90
55004;DHT22;40900;52.710;6.438;2022-08-01T01:43:09;18.50;99.90
55004;DHT22;40900;52.710;6.438;2022-08-01T01:45:36;18.50;99.90
55004;DHT22;40900;52.710;6.438;2022-08-01T01:48:02;18.50;99.90
55004;DHT22;40900;52.710;6.438;2022-08-01T01:50:29;18.50;99.90
55004;DHT22;40900;52.710;6.438;2022-08-01T01:52:56;18.50;99.90
55004;DHT22;40900;52.710;6.438;2022-08-01T01:55:24;18.40;99.90
55004;DHT22;40900;52.710;6.438;2022-08-01T01:57:51;18.50;99.90
55004;DHT22;40900;52.710;6.438;2022-08-01T02:00:18;18.40;99.90
55004;DHT22;40900;52.710;6.438;2022-08-01T02:02:44;18.50;99.90
55004;DHT22;40900;52.710;6.438;2022-08-01T02:05:12;18.50;99.90
55004;DHT22;40900;52.710;6.438;2022-08-01T02:07:39;18.50;99.90
55004;DHT22;40900;52.710;6.438;2022-08-01T02:10:06;18.40;99.90
55004;DHT22;40900;52.710;6.438;2022-08-01T02:12:35;18.40;99.90
55004;DHT22;40900;52.710;6.438;2022-08-01T02:15:03;18.40;99.90
55004;DHT22;40900;52.710;6.438;2022-08-01T02:17:30;18.40;99.90
55004;DHT22;40900;52.710;6.438;2022-08-01T02:19:57;18.40;99.90
55004;DHT22;40900;52.710;6.438;2022-08-01T02:22:50;18.40;99.90
55004;DHT22;40900;52.710;6.438;2022-08-01T02:25:25;18.40;99.90
55004;DHT22;40900;52.710;6.438;2022-08-01T02:28:03;18.30;99.90
55004;DHT22;40900;52.710;6.438;2022-08-01T02:30:33;18.30;99.90
55004;DHT22;40900;52.710;6.438;2022-08-01T02:33:07;18.30;99.90
55004;DHT22;40900;52.710;6.438;2022-08-01T02:35:38;18.30;99.90
55004;DHT22;40900;52.710;6.438;2022-08-01T02:38:09;18.30;99.90
55004;DHT22;40900;52.710;6.438;2022-08-01T02:40:38;18.30;99.90
55004;DHT22;40900;52.710;6.438;2022-08-01T02:43:05;18.20;99.90
55004;DHT22;40900;52.710;6.438;2022-08-01T02:45:34;18.20;99.90
55004;DHT22;40900;52.710;6.438;2022-08-01T02:48:07;18.20;99.90
55004;DHT22;40900;52.710;6.438;2022-08-01T02:50:34;18.20;99.90
55004;DHT22;40900;52.710;6.438;2022-08-01T02:53:01;18.20;99.90
55004;DHT22;40900;52.710;6.438;2022-08-01T02:55:28;18.20;99.90
55004;DHT22;40900;52.710;6.438;2022-08-01T02:57:55;18.20;99.90
55004;DHT22;40900;52.710;6.438;2022-08-01T03:00:22;18.20;99.90
55004;DHT22;40900;52.710;6.438;2022-08-01T03:02:51;18.20;99.90
55004;DHT22;40900;52.710;6.438;2022-08-01T03:05:20;18.20;99.90
55004;DHT22;40900;52.710;6.438;2022-08-01T03:07:47;18.20;99.90
55004;DHT22;40900;52.710;6.438;2022-08-01T03:10:14;18.20;99.90
55004;DHT22;40900;52.710;6.438;2022-08-01T03:12:42;18.20;99.90
55004;DHT22;40900;52.710;6.438;2022-08-01T03:15:09;18.20;99.90
55004;DHT22;40900;52.710;6.438;2022-08-01T03:17:36;18.20;99.90
55004;DHT22;40900;52.710;6.438;2022-08-01T03:20:04;18.20;99.90
55004;DHT22;40900;52.710;6.438;2022-08-01T03:22:31;18.20;99.90
55004;DHT22;40900;52.710;6.438;2022-08-01T03:24:59;18.20;99.90
55004;DHT22;40900;52.710;6.438;2022-08-01T03:27:26;18.20;99.90
55004;DHT22;40900;52.710;6.438;2022-08-01T03:29:55;18.20;99.90
55004;DHT22;40900;52.710;6.438;2022-08-01T03:32:22;18.10;99.90
55004;DHT22;40900;52.710;6.438;2022-08-01T03:34:48;18.10;99.90
55004;DHT22;40900;52.710;6.438;2022-08-01T03:37:36;18.10;99.90
55004;DHT22;40900;52.710;6.438;2022-08-01T03:40:13;18.00;99.90
55004;DHT22;40900;52.710;6.438;2022-08-01T03:42:48;17.90;99.90
55004;DHT22;40900;52.710;6.438;2022-08-01T03:45:27;17.90;99.90
55004;DHT22;40900;52.710;6.438;2022-08-01T03:48:00;17.90;99.90
55004;DHT22;40900;52.710;6.438;2022-08-01T03:50:27;17.80;99.90
55004;DHT22;40900;52.710;6.438;2022-08-01T03:52:57;17.80;99.90
55004;DHT22;40900;52.710;6.438;2022-08-01T03:55:24;17.80;99.90
55004;DHT22;40900;52.710;6.438;2022-08-01T03:57:51;17.80;99.90
55004;DHT22;40900;52.710;6.438;2022-08-01T04:00:17;17.80;99.90
55004;DHT22;40900;52.710;6.438;2022-08-01T04:02:49;17.90;99.90
55004;DHT22;40900;52.710;6.438;2022-08-01T04:05:16;17.90;99.90
55004;DHT22;40900;52.710;6.438;2022-08-01T04:07:49;17.90;99.90
55004;DHT22;40900;52.710;6.438;2022-08-01T04:10:24;17.90;99.90
55004;DHT22;40900;52.710;6.438;2022-08-01T04:12:50;17.90;99.90
55004;DHT22;40900;52.710;6.438;2022-08-01T04:15:16;17.90;99.90
55004;DHT22;40900;52.710;6.438;2022-08-01T04:17:42;17.90;99.90
55004;DHT22;40900;52.710;6.438;2022-08-01T04:20:08;17.90;99.90
55004;DHT22;40900;52.710;6.438;2022-08-01T04:22:34;17.80;99.90
55004;DHT22;40900;52.710;6.438;2022-08-01T04:25:04;17.90;99.90
55004;DHT22;40900;52.710;6.438;2022-08-01T04:27:33;17.90;99.90
55004;DHT22;40900;52.710;6.438;2022-08-01T04:30:00;17.90;99.90
55004;DHT22;40900;52.710;6.438;2022-08-01T04:32:29;17.90;99.90
55004;DHT22;40900;52.710;6.438;2022-08-01T04:34:57;17.90;99.90
55004;DHT22;40900;52.710;6.438;2022-08-01T04:37:26;18.00;99.90
55004;DHT22;40900;52.710;6.438;2022-08-01T04:39:54;17.90;99.90
55004;DHT22;40900;52.710;6.438;2022-08-01T04:42:22;17.90;99.90
55004;DHT22;40900;52.710;6.438;2022-08-01T04:44:47;17.90;99.90
55004;DHT22;40900;52.710;6.438;2022-08-01T04:47:14;17.90;99.90
55004;DHT22;40900;52.710;6.438;2022-08-01T04:49:40;17.90;99.90
55004;DHT22;40900;52.710;6.438;2022-08-01T04:52:06;17.90;99.90
55004;DHT22;40900;52.710;6.438;2022-08-01T04:54:34;17.90;99.90
55004;DHT22;40900;52.710;6.438;2022-08-01T04:57:06;18.00;99.90
55004;DHT22;40900;52.710;6.438;2022-08-01T04:59:34;17.90;99.90
55004;DHT22;40900;52.710;6.438;2022-08-01T05:02:17;18.00;99.90
55004;DHT22;40900;52.710;6.438;2022-08-01T05:04:44;17.90;99.90
55004;DHT22;40900;52.710;6.438;2022-08-01T05:07:11;17.90;99.90
55004;DHT22;40900;52.710;6.438;2022-08-01T05:09:38;17.90;99.90
55004;DHT22;40900;52.710;6.438;2022-08-01T05:12:08;17.90;99.90
55004;DHT22;40900;52.710;6.438;2022-08-01T05:14:34;17.80;99.90
55004;DHT22;40900;52.710;6.438;2022-08-01T05:17:05;17.90;99.90
55004;DHT22;40900;52.710;6.438;2022-08-01T05:19:33;17.80;99.90
55004;DHT22;40900;52.710;6.438;2022-08-01T05:22:00;17.80;99.90
55004;DHT22;40900;52.710;6.438;2022-08-01T05:24:34;17.80;99.90
55004;DHT22;40900;52.710;6.438;2022-08-01T05:27:00;17.80;99.90
55004;DHT22;40900;52.710;6.438;2022-08-01T05:29:27;17.80;99.90
55004;DHT22;40900;52.710;6.438;2022-08-01T05:31:53;17.80;99.90
55004;DHT22;40900;52.710;6.438;2022-08-01T05:34:20;17.80;99.90
55004;DHT22;40900;52.710;6.438;2022-08-01T05:36:46;17.80;99.90
55004;DHT22;40900;52.710;6.438;2022-08-01T05:39:12;17.80;99.90
55004;DHT22;40900;52.710;6.438;2022-08-01T05:41:38;17.80;99.90
55004;DHT22;40900;52.710;6.438;2022-08-01T05:44:04;17.80;99.90
55004;DHT22;40900;52.710;6.438;2022-08-01T05:46:30;17.80;99.90
55004;DHT22;40900;52.710;6.438;2022-08-01T05:49:00;17.70;99.90
55004;DHT22;40900;52.710;6.438;2022-08-01T05:51:26;17.80;99.90
55004;DHT22;40900;52.710;6.438;2022-08-01T05:53:52;17.80;99.90
55004;DHT22;40900;52.710;6.438;2022-08-01T05:56:18;17.70;99.90
55004;DHT22;40900;52.710;6.438;2022-08-01T05:58:44;17.80;99.90
55004;DHT22;40900;52.710;6.438;2022-08-01T06:01:10;17.90;99.90
55004;DHT22;40900;52.710;6.438;2022-08-01T06:03:36;17.90;99.90
55004;DHT22;40900;52.710;6.438;2022-08-01T06:06:02;17.90;99.90
55004;DHT22;40900;52.710;6.438;2022-08-01T06:08:28;17.90;99.90
55004;DHT22;40900;52.710;6.438;2022-08-01T06:10:54;17.80;99.90
55004;DHT22;40900;52.710;6.438;2022-08-01T06:13:20;17.90;99.90
55004;DHT22;40900;52.710;6.438;2022-08-01T06:15:46;17.90;99.90
55004;DHT22;40900;52.710;6.438;2022-08-01T06:18:13;17.90;99.90
55004;DHT22;40900;52.710;6.438;2022-08-01T06:20:38;17.90;99.90
55004;DHT22;40900;52.710;6.438;2022-08-01T06:23:04;17.90;99.90
55004;DHT22;40900;52.710;6.438;2022-08-01T06:25:30;17.90;99.90
55004;DHT22;40900;52.710;6.438;2022-08-01T06:27:56;17.90;99.90
55004;DHT22;40900;52.710;6.438;2022-08-01T06:30:22;17.90;99.90
55004;DHT22;40900;52.710;6.438;2022-08-01T06:32:48;17.90;99.90
55004;DHT22;40900;52.710;6.438;2022-08-01T06:35:14;17.80;99.90
55004;DHT22;40900;52.710;6.438;2022-08-01T06:37:41;17.80;99.90
55004;DHT22;40900;52.710;6.438;2022-08-01T06:40:09;17.70;99.90
55004;DHT22;40900;52.710;6.438;2022-08-01T06:42:35;17.70;99.90
55004;DHT22;40900;52.710;6.438;2022-08-01T06:45:06;17.80;99.90
55004;DHT22;40900;52.710;6.438;2022-08-01T06:47:32;17.80;99.90
55004;DHT22;40900;52.710;6.438;2022-08-01T06:49:58;17.80;99.90
55004;DHT22;40900;52.710;6.438;2022-08-01T06:52:24;17.80;99.90
55004;DHT22;40900;52.710;6.438;2022-08-01T06:54:50;17.90;99.90
55004;DHT22;40900;52.710;6.438;2022-08-01T06:57:16;18.00;99.90
55004;DHT22;40900;52.710;6.438;2022-08-01T06:59:42;18.00;99.90
55004;DHT22;40900;52.710;6.438;2022-08-01T07:02:08;18.00;99.90
55004;DHT22;40900;52.710;6.438;2022-08-01T07:04:34;18.00;99.90
55004;DHT22;40900;52.710;6.438;2022-08-01T07:07:00;18.00;99.90
55004;DHT22;40900;52.710;6.438;2022-08-01T07:09:26;18.20;99.90
55004;DHT22;40900;52.710;6.438;2022-08-01T07:11:52;18.20;99.90
55004;DHT22;40900;52.710;6.438;2022-08-01T07:14:20;18.20;99.90
55004;DHT22;40900;52.710;6.438;2022-08-01T07:16:46;18.30;99.90
55004;DHT22;40900;52.710;6.438;2022-08-01T07:19:11;18.50;99.90
55004;DHT22;40900;52.710;6.438;2022-08-01T07:21:38;18.50;99.90
55004;DHT22;40900;52.710;6.438;2022-08-01T07:24:05;18.40;99.90
55004;DHT22;40900;52.710;6.438;2022-08-01T07:26:31;18.60;99.90
55004;DHT22;40900;52.710;6.438;2022-08-01T07:28:57;18.60;99.90
55004;DHT22;40900;52.710;6.438;2022-08-01T07:31:23;18.70;99.90
55004;DHT22;40900;52.710;6.438;2022-08-01T07:33:49;18.70;99.90
55004;DHT22;40900;52.710;6.438;2022-08-01T07:36:18;18.60;99.90
55004;DHT22;40900;52.710;6.438;2022-08-01T07:38:45;18.70;99.90
55004;DHT22;40900;52.710;6.438;2022-08-01T07:41:11;18.70;99.90
55004;DHT22;40900;52.710;6.438;2022-08-01T07:43:36;18.80;99.90
55004;DHT22;40900;52.710;6.438;2022-08-01T07:46:06;18.90;99.90
55004;DHT22;40900;52.710;6.438;2022-08-01T07:48:32;19.00;99.90
55004;DHT22;40900;52.710;6.438;2022-08-01T07:50:57;19.20;99.90
55004;DHT22;40900;52.710;6.438;2022-08-01T07:53:23;19.40;99.90
55004;DHT22;40900;52.710;6.438;2022-08-01T07:55:50;19.70;99.90
55004;DHT22;40900;52.710;6.438;2022-08-01T07:58:16;20.10;99.90
55004;DHT22;40900;52.710;6.438;2022-08-01T08:00:42;20.20;99.90
55004;DHT22;40900;52.710;6.438;2022-08-01T08:03:07;20.30;99.90
55004;DHT22;40900;52.710;6.438;2022-08-01T08:05:33;20.50;99.90
55004;DHT22;40900;52.710;6.438;2022-08-01T08:08:09;20.50;99.90
55004;DHT22;40900;52.710;6.438;2022-08-01T08:10:39;20.80;99.90
55004;DHT22;40900;52.710;6.438;2022-08-01T08:13:05;20.90;99.90
55004;DHT22;40900;52.710;6.438;2022-08-01T08:15:30;21.10;99.90
55004;DHT22;40900;52.710;6.438;2022-08-01T08:17:56;21.10;99.90
55004;DHT22;40900;52.710;6.438;2022-08-01T08:20:22;21.00;99.90
55004;DHT22;40900;52.710;6.438;2022-08-01T08:22:53;21.20;99.90
55004;DHT22;40900;52.710;6.438;2022-08-01T08:25:19;21.30;99.90
55004;DHT22;40900;52.710;6.438;2022-08-01T08:27:48;21.50;99.90
55004;DHT22;40900;52.710;6.438;2022-08-01T08:30:14;21.90;99.90
55004;DHT22;40900;52.710;6.438;2022-08-01T08:32:40;22.10;99.90
55004;DHT22;40900;52.710;6.438;2022-08-01T08:35:06;22.10;99.90
55004;DHT22;40900;52.710;6.438;2022-08-01T08:37:33;22.10;99.90
55004;DHT22;40900;52.710;6.438;2022-08-01T08:39:59;22.40;99.90
55004;DHT22;40900;52.710;6.438;2022-08-01T08:42:25;22.40;99.90
55004;DHT22;40900;52.710;6.438;2022-08-01T08:44:51;22.40;99.90
55004;DHT22;40900;52.710;6.438;2022-08-01T08:47:17;22.30;99.90
55004;DHT22;40900;52.710;6.438;2022-08-01T08:49:44;22.10;99.90
55004;DHT22;40900;52.710;6.438;2022-08-01T08:52:11;22.00;99.90
55004;DHT22;40900;52.710;6.438;2022-08-01T08:54:38;21.80;99.90
55004;DHT22;40900;52.710;6.438;2022-08-01T08:57:06;21.80;99.90
55004;DHT22;40900;52.710;6.438;2022-08-01T08:59:32;21.50;99.90
55004;DHT22;40900;52.710;6.438;2022-08-01T09:01:59;21.50;99.90
55004;DHT22;40900;52.710;6.438;2022-08-01T09:04:26;21.40;99.90
55004;DHT22;40900;52.710;6.438;2022-08-01T09:06:52;21.40;99.90
55004;DHT22;40900;52.710;6.438;2022-08-01T09:09:18;21.40;99.90
55004;DHT22;40900;52.710;6.438;2022-08-01T09:11:44;21.70;99.90
55004;DHT22;40900;52.710;6.438;2022-08-01T09:14:18;21.70;99.90
55004;DHT22;40900;52.710;6.438;2022-08-01T09:17:06;21.80;99.90
55004;DHT22;40900;52.710;6.438;2022-08-01T09:19:37;22.00;99.90
55004;DHT22;40900;52.710;6.438;2022-08-01T09:22:06;22.10;99.90
55004;DHT22;40900;52.710;6.438;2022-08-01T09:24:33;22.10;99.90
55004;DHT22;40900;52.710;6.438;2022-08-01T09:27:00;22.30;99.90
55004;DHT22;40900;52.710;6.438;2022-08-01T09:29:30;22.50;99.90
55004;DHT22;40900;52.710;6.438;2022-08-01T09:32:05;23.00;99.90
55004;DHT22;40900;52.710;6.438;2022-08-01T09:34:31;23.50;99.90
55004;DHT22;40900;52.710;6.438;2022-08-01T09:37:00;23.60;99.90
55004;DHT22;40900;52.710;6.438;2022-08-01T09:39:27;24.10;99.90
55004;DHT22;40900;52.710;6.438;2022-08-01T09:41:55;24.40;99.90
55004;DHT22;40900;52.710;6.438;2022-08-01T09:44:43;24.80;99.90
55004;DHT22;40900;52.710;6.438;2022-08-01T09:47:11;25.20;99.90
55004;DHT22;40900;52.710;6.438;2022-08-01T09:49:39;25.60;99.90
55004;DHT22;40900;52.710;6.438;2022-08-01T09:52:16;25.60;99.90
55004;DHT22;40900;52.710;6.438;2022-08-01T09:54:43;25.80;99.90
55004;DHT22;40900;52.710;6.438;2022-08-01T09:57:15;26.10;99.90
55004;DHT22;40900;52.710;6.438;2022-08-01T09:59:46;26.20;99.90
55004;DHT22;40900;52.710;6.438;2022-08-01T10:02:13;26.30;99.90
55004;DHT22;40900;52.710;6.438;2022-08-01T10:04:51;25.90;98.70
55004;DHT22;40900;52.710;6.438;2022-08-01T10:07:17;26.10;99.50
55004;DHT22;40900;52.710;6.438;2022-08-01T10:09:45;26.00;99.90
55004;DHT22;40900;52.710;6.438;2022-08-01T10:12:13;25.40;98.80
55004;DHT22;40900;52.710;6.438;2022-08-01T10:14:39;25.20;98.30
55004;DHT22;40900;52.710;6.438;2022-08-01T10:17:07;25.40;99.10
55004;DHT22;40900;52.710;6.438;2022-08-01T10:19:35;25.60;98.70
55004;DHT22;40900;52.710;6.438;2022-08-01T10:22:06;25.80;99.30
55004;DHT22;40900;52.710;6.438;2022-08-01T10:24:36;25.70;98.80
55004;DHT22;40900;52.710;6.438;2022-08-01T10:27:04;26.00;99.20
55004;DHT22;40900;52.710;6.438;2022-08-01T10:29:56;26.00;99.50
55004;DHT22;40900;52.710;6.438;2022-08-01T10:32:22;25.90;98.80
55004;DHT22;40900;52.710;6.438;2022-08-01T10:34:49;25.50;99.40
55004;DHT22;40900;52.710;6.438;2022-08-01T10:37:15;25.40;99.20
55004;DHT22;40900;52.710;6.438;2022-08-01T10:39:42;25.80;99.60
55004;DHT22;40900;52.710;6.438;2022-08-01T10:42:10;26.10;99.00
55004;DHT22;40900;52.710;6.438;2022-08-01T10:44:37;26.10;98.30
55004;DHT22;40900;52.710;6.438;2022-08-01T10:47:09;26.30;97.90
55004;DHT22;40900;52.710;6.438;2022-08-01T10:49:45;26.10;97.50
55004;DHT22;40900;52.710;6.438;2022-08-01T10:52:16;26.30;97.40
55004;DHT22;40900;52.710;6.438;2022-08-01T10:54:43;26.30;97.90
55004;DHT22;40900;52.710;6.438;2022-08-01T10:57:09;26.40;97.50
55004;DHT22;40900;52.710;6.438;2022-08-01T10:59:48;26.70;97.40
55004;DHT22;40900;52.710;6.438;2022-08-01T11:02:27;26.70;96.50
55004;DHT22;40900;52.710;6.438;2022-08-01T11:05:09;26.70;97.60
55004;DHT22;40900;52.710;6.438;2022-08-01T11:07:42;26.40;95.80
55004;DHT22;40900;52.710;6.438;2022-08-01T11:10:23;26.20;96.50
55004;DHT22;40900;52.710;6.438;2022-08-01T11:12:50;26.40;96.70
55004;DHT22;40900;52.710;6.438;2022-08-01T11:15:18;26.40;96.20
55004;DHT22;40900;52.710;6.438;2022-08-01T11:17:51;26.30;96.50
55004;DHT22;40900;52.710;6.438;2022-08-01T11:20:25;26.00;96.90
55004;DHT22;40900;52.710;6.438;2022-08-01T11:30:52;25.60;96.80
55004;DHT22;40900;52.710;6.438;2022-08-01T11:38:45;25.60;96.90
55004;DHT22;40900;52.710;6.438;2022-08-01T11:41:15;25.40;96.60
55004;DHT22;40900;52.710;6.438;2022-08-01T11:44:20;25.30;96.60
55004;DHT22;40900;52.710;6.438;2022-08-01T11:47:00;25.30;96.20
55004;DHT22;40900;52.710;6.438;2022-08-01T11:54:51;24.80;97.50
55004;DHT22;40900;52.710;6.438;2022-08-01T11:57:23;24.80;97.00
55004;DHT22;40900;52.710;6.438;2022-08-01T11:59:57;24.90;97.10
55004;DHT22;40900;52.710;6.438;2022-08-01T12:02:33;25.00;97.30
55004;DHT22;40900;52.710;6.438;2022-08-01T12:05:10;25.10;97.50
55004;DHT22;40900;52.710;6.438;2022-08-01T12:07:38;25.10;97.20
55004;DHT22;40900;52.710;6.438;2022-08-01T12:10:16;25.10;96.70
55004;DHT22;40900;52.710;6.438;2022-08-01T12:13:00;25.10;96.60
55004;DHT22;40900;52.710;6.438;2022-08-01T12:15:31;25.20;96.00
55004;DHT22;40900;52.710;6.438;2022-08-01T12:17:58;25.00;96.50
55004;DHT22;40900;52.710;6.438;2022-08-01T12:20:25;24.80;96.50
55004;DHT22;40900;52.710;6.438;2022-08-01T12:22:56;24.70;96.20
55004;DHT22;40900;52.710;6.438;2022-08-01T12:25:22;24.90;96.70
55004;DHT22;40900;52.710;6.438;2022-08-01T12:27:49;24.80;96.00
55004;DHT22;40900;52.710;6.438;2022-08-01T12:30:17;24.80;96.20
55004;DHT22;40900;52.710;6.438;2022-08-01T12:32:47;24.80;95.90
55004;DHT22;40900;52.710;6.438;2022-08-01T12:35:15;24.90;96.30
55004;DHT22;40900;52.710;6.438;2022-08-01T12:37:44;25.10;97.10
55004;DHT22;40900;52.710;6.438;2022-08-01T12:40:13;25.10;96.00
55004;DHT22;40900;52.710;6.438;2022-08-01T12:42:40;25.20;96.00
55004;DHT22;40900;52.710;6.438;2022-08-01T12:45:12;25.30;96.10
55004;DHT22;40900;52.710;6.438;2022-08-01T12:47:39;25.30;96.10
55004;DHT22;40900;52.710;6.438;2022-08-01T12:50:16;25.30;95.40
55004;DHT22;40900;52.710;6.438;2022-08-01T12:52:43;25.10;95.70
55004;DHT22;40900;52.710;6.438;2022-08-01T12:57:41;25.00;95.60
55004;DHT22;40900;52.710;6.438;2022-08-01T13:00:17;25.10;95.40
55004;DHT22;40900;52.710;6.438;2022-08-01T13:02:46;25.10;95.60
55004;DHT22;40900;52.710;6.438;2022-08-01T13:05:12;25.10;95.90
55004;DHT22;40900;52.710;6.438;2022-08-01T13:07:43;25.00;96.20
55004;DHT22;40900;52.710;6.438;2022-08-01T13:10:10;25.00;96.00
55004;DHT22;40900;52.710;6.438;2022-08-01T13:12:36;24.80;95.40
55004;DHT22;40900;52.710;6.438;2022-08-01T13:15:22;24.70;95.50
55004;DHT22;40900;52.710;6.438;2022-08-01T13:17:50;24.50;95.60
55004;DHT22;40900;52.710;6.438;2022-08-01T13:20:32;24.50;96.50
55004;DHT22;40900;52.710;6.438;2022-08-01T13:23:17;24.60;96.60
55004;DHT22;40900;52.710;6.438;2022-08-01T13:25:51;24.60;96.30
55004;DHT22;40900;52.710;6.438;2022-08-01T13:28:18;24.50;96.20
55004;DHT22;40900;52.710;6.438;2022-08-01T13:30:51;24.50;95.80
55004;DHT22;40900;52.710;6.438;2022-08-01T13:33:17;24.40;95.30
55004;DHT22;40900;52.710;6.438;2022-08-01T13:35:43;24.10;95.90
55004;DHT22;40900;52.710;6.438;2022-08-01T13:38:08;24.20;95.80
55004;DHT22;40900;52.710;6.438;2022-08-01T13:40:34;24.30;95.30
55004;DHT22;40900;52.710;6.438;2022-08-01T13:43:00;24.00;94.90
55004;DHT22;40900;52.710;6.438;2022-08-01T13:45:26;24.00;95.40
55004;DHT22;40900;52.710;6.438;2022-08-01T13:47:52;24.30;95.50
55004;DHT22;40900;52.710;6.438;2022-08-01T13:50:17;24.50;95.70
55004;DHT22;40900;52.710;6.438;2022-08-01T13:52:43;24.70;96.20
55004;DHT22;40900;52.710;6.438;2022-08-01T13:55:09;24.90;96.10
55004;DHT22;40900;52.710;6.438;2022-08-01T13:57:35;24.80;95.60
55004;DHT22;40900;52.710;6.438;2022-08-01T14:00:01;24.60;95.00
55004;DHT22;40900;52.710;6.438;2022-08-01T14:02:27;24.80;95.70
55004;DHT22;40900;52.710;6.438;2022-08-01T14:04:53;24.80;95.80
55004;DHT22;40900;52.710;6.438;2022-08-01T14:07:21;24.90;96.00
55004;DHT22;40900;52.710;6.438;2022-08-01T14:09:46;24.90;95.60
55004;DHT22;40900;52.710;6.438;2022-08-01T14:12:12;24.90;96.00
55004;DHT22;40900;52.710;6.438;2022-08-01T14:14:38;24.90;95.30
55004;DHT22;40900;52.710;6.438;2022-08-01T14:17:04;24.80;95.00
55004;DHT22;40900;52.710;6.438;2022-08-01T14:19:30;24.80;95.30
55004;DHT22;40900;52.710;6.438;2022-08-01T14:21:56;24.70;95.00
55004;DHT22;40900;52.710;6.438;2022-08-01T14:24:23;24.70;94.00
55004;DHT22;40900;52.710;6.438;2022-08-01T14:26:49;24.80;93.90
55004;DHT22;40900;52.710;6.438;2022-08-01T14:29:15;24.80;93.70
55004;DHT22;40900;52.710;6.438;2022-08-01T14:31:40;25.00;93.90
55004;DHT22;40900;52.710;6.438;2022-08-01T14:34:06;25.00;94.20
55004;DHT22;40900;52.710;6.438;2022-08-01T14:36:32;25.10;94.10
55004;DHT22;40900;52.710;6.438;2022-08-01T14:38:58;25.00;93.40
55004;DHT22;40900;52.710;6.438;2022-08-01T14:41:24;25.00;93.20
55004;DHT22;40900;52.710;6.438;2022-08-01T14:43:50;24.90;92.90
55004;DHT22;40900;52.710;6.438;2022-08-01T14:46:16;25.00;93.40
55004;DHT22;40900;52.710;6.438;2022-08-01T14:48:41;25.00;93.40
55004;DHT22;40900;52.710;6.438;2022-08-01T14:51:08;25.10;93.40
55004;DHT22;40900;52.710;6.438;2022-08-01T14:53:34;25.00;93.70
55004;DHT22;40900;52.710;6.438;2022-08-01T14:56:03;24.80;93.00
55004;DHT22;40900;52.710;6.438;2022-08-01T14:58:29;24.60;93.60
55004;DHT22;40900;52.710;6.438;2022-08-01T15:00:55;24.60;94.40
55004;DHT22;40900;52.710;6.438;2022-08-01T15:03:21;24.60;94.30
55004;DHT22;40900;52.710;6.438;2022-08-01T15:05:47;24.50;94.40
55004;DHT22;40900;52.710;6.438;2022-08-01T15:08:13;24.60;94.40
55004;DHT22;40900;52.710;6.438;2022-08-01T15:10:39;24.60;94.40
55004;DHT22;40900;52.710;6.438;2022-08-01T15:13:04;24.50;94.60
55004;DHT22;40900;52.710;6.438;2022-08-01T15:15:30;24.50;94.50
55004;DHT22;40900;52.710;6.438;2022-08-01T15:17:56;24.40;94.20
55004;DHT22;40900;52.710;6.438;2022-08-01T15:20:22;24.50;94.70
55004;DHT22;40900;52.710;6.438;2022-08-01T15:22:48;24.50;94.50
55004;DHT22;40900;52.710;6.438;2022-08-01T15:25:14;24.40;94.20
55004;DHT22;40900;52.710;6.438;2022-08-01T15:27:40;24.50;94.50
55004;DHT22;40900;52.710;6.438;2022-08-01T15:30:06;24.50;94.30
55004;DHT22;40900;52.710;6.438;2022-08-01T15:32:32;24.60;94.50
55004;DHT22;40900;52.710;6.438;2022-08-01T15:34:57;24.70;94.10
55004;DHT22;40900;52.710;6.438;2022-08-01T15:37:23;24.80;94.50
55004;DHT22;40900;52.710;6.438;2022-08-01T15:39:49;24.90;94.30
55004;DHT22;40900;52.710;6.438;2022-08-01T15:42:16;24.80;94.30
55004;DHT22;40900;52.710;6.438;2022-08-01T15:44:42;24.70;94.40
55004;DHT22;40900;52.710;6.438;2022-08-01T15:47:08;24.60;95.30
55004;DHT22;40900;52.710;6.438;2022-08-01T15:49:35;24.60;94.60
55004;DHT22;40900;52.710;6.438;2022-08-01T15:52:08;24.50;94.90
55004;DHT22;40900;52.710;6.438;2022-08-01T15:54:34;24.50;94.20
55004;DHT22;40900;52.710;6.438;2022-08-01T15:57:00;24.40;94.30
55004;DHT22;40900;52.710;6.438;2022-08-01T15:59:26;24.50;94.50
55004;DHT22;40900;52.710;6.438;2022-08-01T16:01:52;24.50;94.80
55004;DHT22;40900;52.710;6.438;2022-08-01T16:04:18;24.40;94.70
55004;DHT22;40900;52.710;6.438;2022-08-01T16:06:45;24.40;94.70